Boling, Texas
Current Conditions -  °F | °C
As of 4:35 AM on Monday 20 Oct 2014 (Local Time) from KARM Reporting Station
Clear Clear  
Wind Chill: 65°   Ceiling: Unl
Heat Index: 65°   Visibility: 10mi
Dew Point: 63°   Wind: 5mph
Humidity: 92%   Direction: 60°ENE
Pressure: 29.99"   Gusts: NA
Location:  29.26°N, 95.94°W
Report Text: KARM 200935Z AUTO 06004KT 10SM CLR 19/17 A2999 RMK AO2 T01850171
Loading
Personal Weather Stations






























Interactive Weather Map
Tropical Storm Tracking
New forecast layout! Learn more

10-Day Weather Forecast

Advertisements
Track Severe Weather on mobile